This is the latest recevied weather packets stored in our database for station/object WC4PEM-11. If no packets are shown the sender has not sent any weather packets the latest 10 day(s).
| Time | Temp. | Humidity | Pressure | Rain* | Wind** | Luminosity | Snow |
|---|---|---|---|---|---|---|---|
| 1788108189 | 31.67° C | 71% | 1018 hPa | 0 mm | - | - | - |
| 1788107889 | 31.67° C | 71% | 1018.1 hPa | 0 mm | - | - | - |
| 1788107589 | 31.11° C | 73% | 1018 hPa | 0 mm | - | - | - |
| 1788107552 | 30.56° C | 76% | 1018 hPa | 0 mm | - | - | - |
| 1788107289 | 30.56° C | 76% | 1018 hPa | 0 mm | - | - | - |
| 1788106989 | 30° C | 76% | 1018 hPa | 0 mm | - | - | - |
| 1788106689 | 30° C | 77% | 1018.1 hPa | 0 mm | - | - | - |
| 1788106389 | 30° C | 77% | 1018 hPa | 0 mm | - | - | - |
| 1788106089 | 30° C | 78% | 1018 hPa | 0 mm | - | - | - |
| 1788105789 | 30° C | 78% | 1018.1 hPa | 0 mm | - | - | - |
| 1788105489 | 30° C | 78% | 1018.1 hPa | 0 mm | - | - | - |
| 1788105189 | 30° C | 78% | 1018.2 hPa | 0 mm | - | - | - |
| 1788104889 | 30° C | 78% | 1018.3 hPa | 0 mm | - | - | - |
| 1788104589 | 30.56° C | 77% | 1018.4 hPa | 0 mm | - | - | - |
| 1788104289 | 30.56° C | 75% | 1018.4 hPa | 0 mm | - | - | - |
| 1788103989 | 31.11° C | 74% | 1018.4 hPa | 0 mm | - | - | - |
| 1788103689 | 31.11° C | 75% | 1018.4 hPa | 0 mm | - | - | - |
| 1788103396 | 30° C | 79% | 1018.5 hPa | 0 mm | - | - | - |
| 1788103389 | 30.56° C | 77% | 1018.4 hPa | 0 mm | - | - | - |
| 1788103089 | 30° C | 79% | 1018.5 hPa | 0 mm | - | - | - |
| 1788102789 | 30° C | 79% | 1018.5 hPa | 0 mm | - | - | - |
| 1788102489 | 30° C | 79% | 1018.6 hPa | 0 mm | - | - | - |
| 1788102189 | 29.44° C | 82% | 1018.7 hPa | 0 mm | - | - | - |
| 1788101889 | 29.44° C | 83% | 1018.7 hPa | 0 mm | - | - | - |
| 1788101589 | 28.89° C | 84% | 1018.8 hPa | 0 mm | - | - | - |
* Rain latest hour (hover to see other rain measurements)
** Current wind speed in m/s (hover to see current wind gust speed)